Flight Track Log - Related Links

Times and Time Zones

All times are in EST time to prevent confusion due to time zone crossing. See the CSQ961 flight status page for this flight to view local times or setup timezone preferences in your user account.

Time Position Orientation Groundspeed Altitude Reporting Facility
EST Latitude Longitude Course Direction KTS MPH feet Rate Location/Type
Fri 12:24:46 18.4333 -65.9667 83° East 150 173 900  Level San Center
Fri 12:25:46 18.4500 -65.9333 62° Northeast 160 184 2,700 1,750 Climbing San Center
Fri 12:26:46 18.4667 -65.9000 62° Northeast 150 173 4,400 1,700 Climbing San Center
Fri 12:27:46 18.5000 -65.8500 55° Northeast 150 173 6,100 1,289 Climbing San Center
Fri 12:28:47 18.4833 -65.8000 109° East 180 207 7,000 450 Climbing San Center
Fri 12:29:46 18.4667 -65.7500 109° East 210 242 7,000  Level San Center
Fri 12:30:00 18.4585 -65.7069 83° East  Level FlightAware
Fri 12:30:47 18.4500 -65.6833 105° East 220 253 7,000  Level San Center
Fri 12:31:47 18.4333 -65.6167 105° East 220 253 7,000  Level San Center
Fri 12:32:47 18.4167 -65.5500 105° East 230 265 7,000  Level San Center
Fri 12:33:47 18.4000 -65.4833 105° East 230 265 7,000  Level San Center
Fri 12:34:47 18.3833 -65.4333 109° East 230 265 7,000  Level San Center
Fri 12:35:47 18.3667 -65.3667 105° East 230 265 7,000 -400 Level San Center
Fri 12:36:47 18.3500 -65.3000 105° East 230 265 6,200 -1,100 Descending San Center
Fri 12:37:47 18.3333 -65.2333 105° East 220 253 4,800 -1,438 Descending San Center
Fri 12:38:48 18.3167 -65.1833 109° East 190 219 3,300 -1,200 Descending San Center
Fri 12:39:47 18.3167 -65.1333 90° East 160 184 2,400 -700 Descending San Center
Fri 12:40:48 18.3167 -65.0833 90° East 160 184 1,900 -545 Descending San Center
Fri 12:41:48 18.3167 -65.0500 90° East 130 150 1,300 -700 Descending San Center
Fri 12:42:48 18.3333 -65.0000 71° East 130 150 500 -800 Descending San Center

Login

Don't have an account? Register now (free) for customized features, flight alerts, and more!